Time;durP1;ratioP1;P1;durP2;ratioP2;P2;SDS_P1;SDS_P2;PMS_P1;PMS_P2;Temp;Humidity;BMP_temperature;BMP_pressure;BME280_temperature;BME280_humidity;BME280_pressure;Samples;Min_cycle;Max_cycle;Signal;HPM_P1;HPM_P2
2022/11/12 00:00:25;;;;;;;0.10;0.10;;;8.50;99.90;;;;;;5061487;28;20282;-86
2022/11/12 00:02:51;;;;;;;0.10;0.10;;;8.50;99.90;;;;;;5064403;28;20634;-87
2022/11/12 00:05:16;;;;;;;0.00;0.00;;;8.60;99.90;;;;;;5063676;28;20204;-86
2022/11/12 00:07:42;;;;;;;0.10;0.10;;;8.60;99.90;;;;;;5064663;28;20265;-86
2022/11/12 00:10:08;;;;;;;0.10;0.10;;;8.70;99.90;;;;;;5061358;28;20204;-86
2022/11/12 00:12:33;;;;;;;0.10;0.10;;;8.80;99.90;;;;;;5068460;28;20290;-86
2022/11/12 00:14:59;;;;;;;0.10;0.10;;;8.70;99.90;;;;;;5060326;28;20182;-86
2022/11/12 00:17:24;;;;;;;0.07;0.07;;;8.70;99.90;;;;;;5067311;28;20255;-86
2022/11/12 00:19:50;;;;;;;0.10;0.10;;;8.60;99.90;;;;;;5059849;28;20200;-86
2022/11/12 00:22:15;;;;;;;0.10;0.10;;;8.70;99.90;;;;;;5065202;28;20639;-87
2022/11/12 00:24:41;;;;;;;0.10;0.10;;;8.70;99.90;;;;;;5063331;28;20171;-86
2022/11/12 00:27:07;;;;;;;0.10;0.10;;;8.80;99.90;;;;;;5062778;28;20284;-86
2022/11/12 00:29:32;;;;;;;0.10;0.10;;;8.80;99.90;;;;;;5063515;28;20589;-86
2022/11/12 00:31:58;;;;;;;0.10;0.10;;;8.80;99.90;;;;;;5056792;28;20178;-87
2022/11/12 00:34:23;;;;;;;0.10;0.10;;;8.90;99.90;;;;;;5066470;28;20189;-85
2022/11/12 00:36:49;;;;;;;0.00;0.00;;;8.60;99.90;;;;;;5062921;28;20172;-86
2022/11/12 00:39:14;;;;;;;0.07;0.07;;;8.60;99.90;;;;;;5057624;28;20212;-86
2022/11/12 00:41:40;;;;;;;0.10;0.10;;;8.60;99.90;;;;;;5059473;28;20180;-86
2022/11/12 00:44:05;;;;;;;0.10;0.10;;;8.40;99.90;;;;;;5061210;28;20515;-87
2022/11/12 00:46:31;;;;;;;0.10;0.10;;;8.20;99.90;;;;;;5069674;28;20200;-86
2022/11/12 00:48:56;;;;;;;0.10;0.10;;;8.10;99.90;;;;;;5054734;28;20210;-86
2022/11/12 00:51:22;;;;;;;0.10;0.10;;;8.20;99.90;;;;;;5062640;28;20203;-86
2022/11/12 00:53:49;;;;;;;0.10;0.10;;;8.10;99.90;;;;;;5053193;28;20534;-86
2022/11/12 00:56:15;;;;;;;0.10;0.10;;;7.90;99.90;;;;;;5068854;28;20188;-86
2022/11/12 00:58:40;;;;;;;0.10;0.10;;;7.70;99.90;;;;;;5063152;28;20194;-86
2022/11/12 01:01:08;;;;;;;0.10;0.10;;;7.50;99.90;;;;;;5068869;28;20200;-86
2022/11/12 01:03:35;;;;;;;0.10;0.10;;;7.40;99.90;;;;;;5066625;28;20187;-86
2022/11/12 01:06:10;;;;;;;0.10;0.10;;;7.30;99.90;;;;;;5066860;28;20197;-86
2022/11/12 01:08:35;;;;;;;0.10;0.10;;;7.30;99.90;;;;;;5057616;28;20178;-86
2022/11/12 01:11:13;;;;;;;0.10;0.10;;;7.30;99.90;;;;;;5066778;28;20172;-86
2022/11/12 01:13:41;;;;;;;0.10;0.10;;;7.20;99.90;;;;;;5056500;28;20218;-86
2022/11/12 01:16:09;;;;;;;0.10;0.10;;;7.40;99.90;;;;;;5065090;28;20539;-86
2022/11/12 01:18:34;;;;;;;0.10;0.10;;;7.50;99.90;;;;;;5053731;28;20175;-86
2022/11/12 01:21:04;;;;;;;0.10;0.10;;;7.60;99.90;;;;;;5064865;28;20177;-86
2022/11/12 01:23:39;;;;;;;0.10;0.10;;;7.70;99.90;;;;;;5066027;28;20169;-86
2022/11/12 01:26:06;;;;;;;0.10;0.10;;;7.80;99.90;;;;;;5070770;28;20177;-86
2022/11/12 01:28:32;;;;;;;0.10;0.10;;;8.10;99.90;;;;;;5065858;28;20264;-86
2022/11/12 01:30:57;;;;;;;0.03;0.03;;;8.20;99.90;;;;;;5067153;28;20181;-86
2022/11/12 01:33:23;;;;;;;0.10;0.10;;;8.30;99.90;;;;;;5066055;28;20846;-87
2022/11/12 01:35:49;;;;;;;0.10;0.10;;;8.40;99.90;;;;;;5069074;28;20220;-86
2022/11/12 01:38:14;;;;;;;0.00;0.00;;;8.40;99.90;;;;;;5078826;28;20177;-86
2022/11/12 01:40:40;;;;;;;0.03;0.03;;;8.50;99.90;;;;;;5062320;28;20221;-85
2022/11/12 01:43:12;;;;;;;0.10;0.10;;;8.50;99.90;;;;;;5085241;28;20248;-87
2022/11/12 01:45:45;;;;;;;0.10;0.10;;;8.50;99.90;;;;;;5065128;28;20187;-86
2022/11/12 01:48:33;;;;;;;0.10;0.10;;;8.60;99.90;;;;;;5068724;28;20169;-86
2022/11/12 01:51:00;;;;;;;0.10;0.10;;;8.70;99.90;;;;;;5069762;28;20182;-86
2022/11/12 01:53:28;;;;;;;0.10;0.10;;;8.60;99.90;;;;;;5063157;28;20185;-86
2022/11/12 01:55:56;;;;;;;0.10;0.10;;;8.60;99.90;;;;;;5083504;28;20210;-86
2022/11/12 01:58:25;;;;;;;0.10;0.10;;;8.50;99.90;;;;;;5065015;28;20180;-86
2022/11/12 02:00:51;;;;;;;0.10;0.10;;;8.50;99.90;;;;;;5065492;28;20250;-86
2022/11/12 02:03:23;;;;;;;0.00;0.00;;;8.60;99.90;;;;;;5064536;28;20206;-86
2022/11/12 02:05:52;;;;;;;0.10;0.10;;;8.60;99.90;;;;;;5066124;28;20189;-86
2022/11/12 02:08:18;;;;;;;0.00;0.00;;;8.60;99.90;;;;;;5062906;28;20728;-86
2022/11/12 02:10:44;;;;;;;0.10;0.10;;;8.50;99.90;;;;;;5065327;28;20230;-86
2022/11/12 02:15:54;;;;;;;0.10;0.10;;;8.60;99.90;;;;;;5066463;28;20712;-86
2022/11/12 02:18:20;;;;;;;0.10;0.10;;;8.60;99.90;;;;;;5060468;28;20243;-86
2022/11/12 02:20:54;;;;;;;0.10;0.10;;;8.60;99.90;;;;;;5065296;28;20611;-86
2022/11/12 02:23:19;;;;;;;0.10;0.10;;;8.50;99.90;;;;;;5063454;28;20599;-87
2022/11/12 02:25:45;;;;;;;0.10;0.10;;;8.60;99.90;;;;;;5067705;28;20184;-87
2022/11/12 02:28:11;;;;;;;0.10;0.10;;;8.70;99.90;;;;;;5062988;28;20191;-87
2022/11/12 02:30:42;;;;;;;0.10;0.10;;;8.70;99.90;;;;;;5067697;28;20252;-86
2022/11/12 02:33:08;;;;;;;0.10;0.10;;;8.60;99.90;;;;;;5061160;28;20653;-86
2022/11/12 02:35:33;;;;;;;0.10;0.10;;;8.60;99.90;;;;;;5068167;28;20292;-86
2022/11/12 02:37:59;;;;;;;0.10;0.10;;;8.70;99.90;;;;;;5062320;28;20280;-86
2022/11/12 02:40:25;;;;;;;0.10;0.10;;;8.70;99.90;;;;;;5059928;28;20307;-86
2022/11/12 02:42:50;;;;;;;0.10;0.10;;;8.70;99.90;;;;;;5065545;28;20651;-86
2022/11/12 02:45:16;;;;;;;0.10;0.10;;;8.70;99.90;;;;;;5063406;28;20266;-86
2022/11/12 02:47:42;;;;;;;0.10;0.10;;;8.70;99.90;;;;;;5062920;28;20178;-86
2022/11/12 02:50:08;;;;;;;0.10;0.10;;;8.70;99.90;;;;;;5064740;28;20276;-86
2022/11/12 02:52:33;;;;;;;0.10;0.10;;;8.60;99.90;;;;;;5060938;28;20190;-87
2022/11/12 02:54:59;;;;;;;0.10;0.10;;;8.60;99.90;;;;;;5063880;28;20183;-86
2022/11/12 02:57:25;;;;;;;0.10;0.10;;;8.60;99.90;;;;;;5057816;28;20190;-86
2022/11/12 02:59:51;;;;;;;0.00;0.00;;;8.60;99.90;;;;;;5067925;28;20215;-86
2022/11/12 03:02:16;;;;;;;0.10;0.10;;;8.60;99.90;;;;;;5063461;28;20201;-86
2022/11/12 03:04:42;;;;;;;0.07;0.07;;;8.30;99.90;;;;;;5067289;28;20190;-86
2022/11/12 03:07:07;;;;;;;0.10;0.10;;;7.90;99.90;;;;;;5077595;28;20633;-86
2022/11/12 03:09:33;;;;;;;0.00;0.00;;;7.80;99.90;;;;;;5054926;28;20198;-86
2022/11/12 03:11:59;;;;;;;0.10;0.10;;;7.90;99.90;;;;;;5084674;28;20271;-86
2022/11/12 03:14:25;;;;;;;0.10;0.10;;;8.10;99.90;;;;;;5064939;28;20202;-86
2022/11/12 03:16:51;;;;;;;0.10;0.10;;;8.20;99.90;;;;;;5065511;28;20745;-86
2022/11/12 03:19:16;;;;;;;0.10;0.10;;;8.30;99.90;;;;;;5062394;28;20207;-87
2022/11/12 03:21:42;;;;;;;0.07;0.07;;;8.40;99.90;;;;;;5063102;28;20631;-87
2022/11/12 03:24:07;;;;;;;0.10;0.10;;;8.40;99.90;;;;;;5055541;28;20192;-86
2022/11/12 03:26:33;;;;;;;0.10;0.10;;;8.40;99.90;;;;;;5051805;28;20458;-87
2022/11/12 03:28:58;;;;;;;0.10;0.10;;;8.30;99.90;;;;;;5063642;28;20203;-84
2022/11/12 03:31:24;;;;;;;0.10;0.10;;;8.30;99.90;;;;;;5058330;28;20189;-84
2022/11/12 03:33:49;;;;;;;0.10;0.10;;;8.10;99.90;;;;;;5063920;28;20187;-84
2022/11/12 03:36:15;;;;;;;0.10;0.10;;;8.00;99.90;;;;;;5063965;28;20267;-83
2022/11/12 03:38:41;;;;;;;0.10;0.10;;;7.80;99.90;;;;;;5066494;28;20196;-83
2022/11/12 03:41:06;;;;;;;0.10;0.10;;;7.80;99.90;;;;;;5060451;28;20177;-85
2022/11/12 03:43:32;;;;;;;0.10;0.10;;;7.80;99.90;;;;;;5077095;28;20175;-84
2022/11/12 03:45:57;;;;;;;0.10;0.10;;;7.80;99.90;;;;;;5060455;28;20178;-85
2022/11/12 03:48:23;;;;;;;0.10;0.10;;;8.10;99.90;;;;;;5064864;28;20270;-86
2022/11/12 03:50:48;;;;;;;0.10;0.10;;;8.10;99.90;;;;;;5081419;28;20185;-86
2022/11/12 03:53:14;;;;;;;0.10;0.10;;;8.20;99.90;;;;;;5057981;28;20273;-85
2022/11/12 03:55:40;;;;;;;0.10;0.10;;;8.30;99.90;;;;;;5062406;28;20181;-85
2022/11/12 03:58:05;;;;;;;0.00;0.00;;;8.10;99.90;;;;;;5064750;28;20228;-85
2022/11/12 04:00:31;;;;;;;0.10;0.10;;;8.00;99.90;;;;;;5063512;28;20253;-85
2022/11/12 04:02:57;;;;;;;0.10;0.10;;;7.90;99.90;;;;;;5063541;28;20646;-85
2022/11/12 04:08:35;;;;;;;0.10;0.10;;;7.90;99.90;;;;;;5062302;28;20212;-85
2022/11/12 04:11:11;;;;;;;0.10;0.10;;;7.70;99.90;;;;;;5054805;28;20258;-85
2022/11/12 04:13:37;;;;;;;0.10;0.10;;;8.00;99.90;;;;;;5069685;28;20179;-85
2022/11/12 04:21:55;;;;;;;0.10;0.10;;;7.90;99.90;;;;;;5056219;28;20646;-85
2022/11/12 04:27:12;;;;;;;0.10;0.10;;;8.00;99.90;;;;;;5064346;28;20212;-84
2022/11/12 04:32:24;;;;;;;0.10;0.10;;;8.20;99.90;;;;;;5062569;28;20192;-85
2022/11/12 04:34:49;;;;;;;0.10;0.10;;;8.20;99.90;;;;;;5057232;28;20198;-86
2022/11/12 04:37:15;;;;;;;0.10;0.10;;;7.60;99.90;;;;;;5062244;28;20214;-85
2022/11/12 04:39:40;;;;;;;0.00;0.00;;;7.30;99.90;;;;;;5062571;28;20205;-85
2022/11/12 04:45:02;;;;;;;0.10;0.10;;;7.10;99.90;;;;;;5057448;28;20184;-85
2022/11/12 04:47:29;;;;;;;0.10;0.10;;;6.60;99.90;;;;;;5060918;28;20177;-85
2022/11/12 04:49:54;;;;;;;0.10;0.10;;;6.80;99.90;;;;;;5053299;28;20553;-85
2022/11/12 04:52:20;;;;;;;0.10;0.10;;;6.60;99.90;;;;;;5062476;28;20181;-86
2022/11/12 04:54:46;;;;;;;0.10;0.10;;;6.30;99.90;;;;;;5064146;28;20580;-85
2022/11/12 04:57:11;;;;;;;0.00;0.00;;;6.20;99.90;;;;;;5061511;28;20182;-85
2022/11/12 04:59:37;;;;;;;0.10;0.10;;;6.20;99.90;;;;;;5066940;28;20197;-86
2022/11/12 05:02:02;;;;;;;0.10;0.10;;;6.10;99.90;;;;;;5059113;28;20538;-85
2022/11/12 05:04:28;;;;;;;0.10;0.10;;;6.10;99.90;;;;;;5067663;28;20193;-85
2022/11/12 05:06:57;;;;;;;0.03;0.03;;;6.00;99.90;;;;;;5059249;28;20184;-85
2022/11/12 05:09:25;;;;;;;0.10;0.10;;;5.90;99.90;;;;;;5067270;28;20202;-85
2022/11/12 05:11:52;;;;;;;0.10;0.10;;;6.00;99.90;;;;;;5060053;28;20564;-85
2022/11/12 05:14:18;;;;;;;0.10;0.10;;;5.90;99.90;;;;;;5081232;28;20206;-85
2022/11/12 05:16:43;;;;;;;0.10;0.10;;;5.90;99.90;;;;;;5063262;28;20186;-85
2022/11/12 05:19:09;;;;;;;0.10;0.10;;;5.70;99.90;;;;;;5062961;28;20201;-85
2022/11/12 05:24:19;;;;;;;0.10;0.10;;;5.40;99.90;;;;;;5056895;28;20666;-85
2022/11/12 05:26:44;;;;;;;0.10;0.10;;;5.50;99.90;;;;;;5064179;28;20177;-86
2022/11/12 05:29:10;;;;;;;0.10;0.10;;;5.70;99.90;;;;;;5063895;28;20732;-85
2022/11/12 05:31:35;;;;;;;0.10;0.10;;;5.80;99.90;;;;;;5068583;28;20580;-86
2022/11/12 05:34:01;;;;;;;0.10;0.10;;;5.90;99.90;;;;;;5051652;28;20186;-85
2022/11/12 05:36:26;;;;;;;0.10;0.10;;;5.80;99.90;;;;;;5064410;28;20183;-86
2022/11/12 05:38:52;;;;;;;0.00;0.00;;;5.70;99.90;;;;;;5074242;28;20212;-86
2022/11/12 05:41:17;;;;;;;0.10;0.10;;;5.40;99.90;;;;;;5076898;28;20248;-87
2022/11/12 05:43:43;;;;;;;0.10;0.10;;;5.40;99.90;;;;;;5086084;28;20710;-86
2022/11/12 05:46:09;;;;;;;0.10;0.10;;;5.60;99.90;;;;;;5103403;28;20166;-87
2022/11/12 05:48:34;;;;;;;0.10;0.10;;;5.70;99.90;;;;;;5079934;28;20228;-87
2022/11/12 05:51:00;;;;;;;0.10;0.10;;;5.50;99.90;;;;;;5086980;28;20181;-85
2022/11/12 05:53:25;;;;;;;0.10;0.10;;;5.50;99.90;;;;;;5065735;28;20189;-86
2022/11/12 05:55:51;;;;;;;0.10;0.10;;;5.70;99.90;;;;;;5080148;28;20269;-86
2022/11/12 05:58:16;;;;;;;0.10;0.10;;;5.70;99.90;;;;;;5069140;28;20177;-86
2022/11/12 06:00:42;;;;;;;8.10;2.00;;;5.60;99.90;;;;;;5061162;28;20221;-85
2022/11/12 06:03:08;;;;;;;0.10;0.10;;;5.30;99.90;;;;;;5067650;28;20186;-85
2022/11/12 06:05:35;;;;;;;0.10;0.10;;;5.60;99.90;;;;;;5062256;28;20220;-86
2022/11/12 06:08:02;;;;;;;0.10;0.10;;;5.70;99.90;;;;;;5067548;28;20250;-86
2022/11/12 06:10:28;;;;;;;0.10;0.10;;;5.90;99.90;;;;;;5060693;28;20212;-86
2022/11/12 06:12:54;;;;;;;0.10;0.10;;;5.90;99.90;;;;;;5068541;28;20186;-86
2022/11/12 06:15:20;;;;;;;0.10;0.10;;;5.80;99.90;;;;;;5080574;28;20188;-86
2022/11/12 06:17:45;;;;;;;0.10;0.10;;;5.80;99.90;;;;;;5064017;28;20183;-85
2022/11/12 06:20:11;;;;;;;0.10;0.10;;;5.60;99.90;;;;;;5068687;28;20199;-86
2022/11/12 06:22:37;;;;;;;0.20;0.20;;;5.80;99.90;;;;;;5080679;28;20170;-86
2022/11/12 06:25:03;;;;;;;0.07;0.07;;;5.60;99.90;;;;;;5082164;28;20162;-86
2022/11/12 06:27:30;;;;;;;0.10;0.10;;;5.80;99.90;;;;;;5077911;28;20172;-86
2022/11/12 06:29:55;;;;;;;0.00;0.00;;;5.80;99.90;;;;;;5089462;28;20208;-87
2022/11/12 06:32:21;;;;;;;0.10;0.10;;;5.80;99.90;;;;;;5086928;28;20173;-86
2022/11/12 06:34:46;;;;;;;0.00;0.00;;;5.80;99.90;;;;;;5086490;28;20201;-86
2022/11/12 06:37:12;;;;;;;0.10;0.10;;;5.70;99.90;;;;;;5065801;28;20582;-86
2022/11/12 06:39:37;;;;;;;0.00;0.00;;;5.70;99.90;;;;;;5063249;28;20214;-86
2022/11/12 06:42:03;;;;;;;0.10;0.10;;;5.70;99.90;;;;;;5062658;28;20561;-87
2022/11/12 06:44:29;;;;;;;0.10;0.10;;;5.60;99.90;;;;;;5066437;28;20169;-85
2022/11/12 06:46:54;;;;;;;0.10;0.10;;;5.50;99.90;;;;;;5067118;28;20192;-85
2022/11/12 06:49:20;;;;;;;0.10;0.10;;;5.50;99.90;;;;;;5073522;28;20201;-86
2022/11/12 06:51:45;;;;;;;0.10;0.10;;;5.50;99.90;;;;;;5051760;28;20186;-85
2022/11/12 06:54:11;;;;;;;0.10;0.10;;;5.60;99.90;;;;;;5076806;28;20181;-86
2022/11/12 06:56:36;;;;;;;0.10;0.10;;;5.60;99.90;;;;;;5058628;28;20183;-87
2022/11/12 06:59:02;;;;;;;0.10;0.10;;;5.70;99.90;;;;;;5071444;28;20208;-85
2022/11/12 07:01:28;;;;;;;0.10;0.10;;;5.80;99.90;;;;;;5063620;28;20199;-86
2022/11/12 07:03:53;;;;;;;0.10;0.10;;;5.80;99.90;;;;;;5084476;28;20583;-86
2022/11/12 07:06:19;;;;;;;0.10;0.10;;;5.80;99.90;;;;;;5066170;28;20176;-86
2022/11/12 07:08:49;;;;;;;0.10;0.10;;;5.80;99.90;;;;;;5066632;28;20192;-86
2022/11/12 07:11:16;;;;;;;0.10;0.10;;;5.80;99.90;;;;;;5065630;28;20177;-86
2022/11/12 07:13:46;;;;;;;0.10;0.10;;;5.90;99.90;;;;;;5067284;28;20226;-86
2022/11/12 07:16:12;;;;;;;0.10;0.10;;;5.90;99.90;;;;;;5064854;28;20177;-85
2022/11/12 07:18:38;;;;;;;0.10;0.10;;;5.90;99.90;;;;;;5061758;28;20181;-86
2022/11/12 07:21:05;;;;;;;0.10;0.10;;;5.90;99.90;;;;;;5063903;28;20215;-87
2022/11/12 07:23:32;;;;;;;0.10;0.10;;;5.90;99.90;;;;;;5065146;28;20200;-86
2022/11/12 07:26:00;;;;;;;0.10;0.10;;;6.10;99.90;;;;;;5066147;28;20201;-87
2022/11/12 07:28:26;;;;;;;0.00;0.00;;;6.00;99.90;;;;;;5082060;28;20576;-86
2022/11/12 07:31:02;;;;;;;0.10;0.10;;;5.90;99.90;;;;;;5069967;28;20852;-86
2022/11/12 07:33:28;;;;;;;0.10;0.10;;;5.90;99.90;;;;;;5065097;28;20196;-86
2022/11/12 07:36:01;;;;;;;0.00;0.00;;;6.00;99.90;;;;;;5065168;28;20184;-86
2022/11/12 07:38:28;;;;;;;0.07;0.07;;;6.00;99.90;;;;;;5069628;28;20267;-85
2022/11/12 07:41:01;;;;;;;0.10;0.10;;;6.00;99.90;;;;;;5064995;28;20218;-86
2022/11/12 07:43:28;;;;;;;0.10;0.10;;;6.10;99.90;;;;;;5061441;28;20189;-86
2022/11/12 07:46:06;;;;;;;0.00;0.00;;;6.10;99.90;;;;;;5062057;28;20641;-86
2022/11/12 07:48:32;;;;;;;0.10;0.10;;;6.20;99.90;;;;;;5061404;28;20206;-86
2022/11/12 07:51:01;;;;;;;0.10;0.10;;;6.20;99.90;;;;;;5060310;28;20213;-87
2022/11/12 07:53:27;;;;;;;0.07;0.07;;;6.20;99.90;;;;;;5059030;28;20193;-86
2022/11/12 07:55:55;;;;;;;0.10;0.10;;;6.20;99.90;;;;;;5066113;28;20646;-86
2022/11/12 07:58:21;;;;;;;0.10;0.10;;;6.40;99.90;;;;;;5062206;28;20638;-86
2022/11/12 08:00:46;;;;;;;0.10;0.10;;;6.40;99.90;;;;;;5063964;28;20283;-86
2022/11/12 08:03:12;;;;;;;0.00;0.00;;;6.40;99.90;;;;;;5064537;28;20211;-86
2022/11/12 08:05:37;;;;;;;0.10;0.10;;;6.40;99.90;;;;;;5065285;28;20628;-87
2022/11/12 08:08:03;;;;;;;0.07;0.07;;;6.50;99.90;;;;;;5062173;28;20171;-86
2022/11/12 08:10:28;;;;;;;0.10;0.10;;;6.40;99.90;;;;;;5064509;28;20258;-87
2022/11/12 08:12:57;;;;;;;0.10;0.10;;;6.50;99.90;;;;;;5070574;28;20187;-86
2022/11/12 08:15:22;;;;;;;0.10;0.10;;;6.50;99.90;;;;;;5062284;28;20193;-87
2022/11/12 08:17:48;;;;;;;0.10;0.10;;;6.60;99.90;;;;;;5069363;28;20588;-86
2022/11/12 08:20:13;;;;;;;0.10;0.10;;;6.80;99.90;;;;;;5061309;28;20219;-86
2022/11/12 08:22:39;;;;;;;0.10;0.10;;;7.10;99.90;;;;;;5066647;28;20182;-86
2022/11/12 08:25:06;;;;;;;0.10;0.10;;;7.20;99.90;;;;;;5069558;28;20183;-85
2022/11/12 08:27:32;;;;;;;0.10;0.10;;;7.40;99.90;;;;;;5061234;28;20258;-86
2022/11/12 08:29:57;;;;;;;0.10;0.10;;;7.30;99.90;;;;;;5067263;28;20628;-86
2022/11/12 08:32:23;;;;;;;0.07;0.07;;;6.90;99.90;;;;;;5061709;28;20563;-86
2022/11/12 08:34:49;;;;;;;0.00;0.00;;;6.70;99.90;;;;;;5074224;28;20209;-86
2022/11/12 08:37:14;;;;;;;0.10;0.10;;;6.70;99.90;;;;;;5063700;28;20185;-86
2022/11/12 08:39:40;;;;;;;0.00;0.00;;;6.70;99.90;;;;;;5062807;28;20311;-86
2022/11/12 08:42:05;;;;;;;0.10;0.10;;;6.70;99.90;;;;;;5062770;28;20176;-86
2022/11/12 08:44:31;;;;;;;0.10;0.10;;;7.10;99.90;;;;;;5064471;28;20211;-86
2022/11/12 08:46:58;;;;;;;0.07;0.07;;;7.20;99.90;;;;;;5066019;28;20178;-84
2022/11/12 08:49:24;;;;;;;0.10;0.10;;;7.30;99.90;;;;;;5070469;28;20683;-84
2022/11/12 08:51:49;;;;;;;0.10;0.10;;;7.20;99.90;;;;;;5041196;28;20174;-84
2022/11/12 08:54:15;;;;;;;0.10;0.10;;;7.20;99.90;;;;;;5067963;28;20178;-84
2022/11/12 08:56:40;;;;;;;0.10;0.10;;;7.20;99.90;;;;;;5065779;28;20239;-84
2022/11/12 08:59:06;;;;;;;0.10;0.10;;;7.20;99.90;;;;;;5067515;28;20569;-83
2022/11/12 09:01:31;;;;;;;0.00;0.00;;;7.10;99.90;;;;;;5059617;28;20185;-85
2022/11/12 09:03:57;;;;;;;0.10;0.10;;;7.40;99.90;;;;;;5065975;28;20169;-84
2022/11/12 09:06:22;;;;;;;0.10;0.10;;;7.60;99.90;;;;;;5060835;28;20188;-85
2022/11/12 09:08:48;;;;;;;0.10;0.10;;;7.50;99.90;;;;;;5074010;28;20201;-84
2022/11/12 09:11:13;;;;;;;0.10;0.10;;;7.90;99.90;;;;;;5062876;28;20179;-84
2022/11/12 09:13:39;;;;;;;0.10;0.10;;;8.00;99.90;;;;;;5063131;28;20169;-84
2022/11/12 09:16:06;;;;;;;0.10;0.10;;;8.30;99.90;;;;;;5064948;28;20267;-84
2022/11/12 09:18:33;;;;;;;0.00;0.00;;;8.30;99.90;;;;;;5062474;28;20173;-84
2022/11/12 09:21:00;;;;;;;0.10;0.10;;;8.20;99.90;;;;;;5065999;28;20200;-84
2022/11/12 09:23:26;;;;;;;0.10;0.10;;;8.40;99.90;;;;;;5067084;28;20187;-84
2022/11/12 09:25:53;;;;;;;0.10;0.10;;;8.20;99.90;;;;;;5070633;28;20158;-85
2022/11/12 09:28:19;;;;;;;0.03;0.03;;;8.10;99.90;;;;;;5065905;28;20240;-85
2022/11/12 09:30:49;;;;;;;0.00;0.00;;;8.20;99.90;;;;;;5069841;28;20670;-85
2022/11/12 09:33:23;;;;;;;0.10;0.10;;;8.40;99.90;;;;;;5064310;28;20181;-86
2022/11/12 09:35:50;;;;;;;0.00;0.00;;;8.50;99.90;;;;;;5066267;28;20230;-85
2022/11/12 09:38:17;;;;;;;0.10;0.10;;;8.50;99.90;;;;;;5070515;28;20292;-85
2022/11/12 09:40:51;;;;;;;0.10;0.10;;;8.60;99.90;;;;;;5062676;28;20214;-85
2022/11/12 09:43:50;;;;;;;0.10;0.10;;;8.60;99.90;;;;;;5071032;28;20178;-86
2022/11/12 09:46:50;;;;;;;0.10;0.10;;;8.60;99.90;;;;;;5037070;28;20558;-85
2022/11/12 09:49:23;;;;;;;0.10;0.10;;;7.90;99.90;;;;;;5063732;28;20204;-86
2022/11/12 09:51:52;;;;;;;0.10;0.10;;;8.10;99.90;;;;;;5067934;28;20600;-85
2022/11/12 09:54:25;;;;;;;0.10;0.10;;;7.80;99.90;;;;;;5072321;28;20172;-85
2022/11/12 09:56:51;;;;;;;0.10;0.10;;;7.70;99.90;;;;;;5055002;28;20192;-85
2022/11/12 09:59:17;;;;;;;0.10;0.10;;;7.70;99.90;;;;;;5063480;28;20698;-85
2022/11/12 10:02:04;;;;;;;0.10;0.10;;;8.00;99.90;;;;;;5065978;28;20219;-85
2022/11/12 10:04:43;;;;;;;0.10;0.10;;;8.20;99.90;;;;;;5054466;28;20187;-86
2022/11/12 10:07:17;;;;;;;0.00;0.00;;;8.40;99.90;;;;;;5059323;28;20182;-86
2022/11/12 10:09:58;;;;;;;0.10;0.10;;;8.60;99.90;;;;;;5063553;28;20193;-84
2022/11/12 10:12:52;;;;;;;0.10;0.10;;;8.70;99.90;;;;;;5072680;28;20188;-84
2022/11/12 10:18:19;;;;;;;0.10;0.10;;;8.90;99.90;;;;;;5066079;28;20245;-85
2022/11/12 10:21:16;;;;;;;0.10;0.10;;;8.90;99.90;;;;;;5062758;28;20214;-86
2022/11/12 10:23:45;;;;;;;0.10;0.10;;;8.30;99.90;;;;;;5056010;28;20176;-85
2022/11/12 10:26:21;;;;;;;0.10;0.10;;;8.00;99.90;;;;;;5064752;28;20183;-85
2022/11/12 10:28:52;;;;;;;0.10;0.10;;;7.80;99.90;;;;;;5066682;28;20660;-85
2022/11/12 10:31:19;;;;;;;0.10;0.10;;;7.80;99.90;;;;;;5065132;28;20645;-85
2022/11/12 10:33:45;;;;;;;0.10;0.10;;;7.70;99.90;;;;;;5066843;28;20617;-86
2022/11/12 10:36:32;;;;;;;0.10;0.10;;;7.80;99.90;;;;;;5062834;28;20181;-85
2022/11/12 10:38:58;;;;;;;0.10;0.10;;;7.90;99.90;;;;;;5063048;28;20206;-85
2022/11/12 10:41:29;;;;;;;0.10;0.10;;;8.20;99.90;;;;;;5072228;28;20175;-86
2022/11/12 10:43:58;;;;;;;0.10;0.10;;;8.50;99.90;;;;;;5057388;28;20671;-85
2022/11/12 10:46:30;;;;;;;0.10;0.10;;;8.60;99.90;;;;;;5070236;28;20181;-86
2022/11/12 10:49:01;;;;;;;0.10;0.10;;;8.40;99.90;;;;;;5063290;28;20346;-85
2022/11/12 10:51:35;;;;;;;0.10;0.10;;;8.40;99.90;;;;;;5086087;28;20554;-86
2022/11/12 10:54:20;;;;;;;0.10;0.10;;;8.10;99.90;;;;;;5061461;28;20293;-86
2022/11/12 10:56:48;;;;;;;0.10;0.10;;;8.00;99.90;;;;;;5063124;28;20176;-85
2022/11/12 10:59:17;;;;;;;3.73;3.60;;;8.10;99.90;;;;;;5071509;28;20194;-85
2022/11/12 11:01:44;;;;;;;0.10;0.10;;;8.00;99.90;;;;;;5054841;28;20178;-85
2022/11/12 11:04:30;;;;;;;0.10;0.10;;;8.20;99.90;;;;;;5062348;28;20175;-86
2022/11/12 11:07:02;;;;;;;0.10;0.10;;;8.20;99.90;;;;;;5068444;28;20197;-86
2022/11/12 11:09:28;;;;;;;0.10;0.10;;;8.40;99.90;;;;;;5064388;28;20203;-86
2022/11/12 11:11:53;;;;;;;0.00;0.00;;;8.70;99.90;;;;;;5068917;28;20703;-85
2022/11/12 11:14:22;;;;;;;0.10;0.10;;;9.00;99.90;;;;;;5063070;28;20170;-86
2022/11/12 11:16:51;;;;;;;0.10;0.10;;;8.90;99.90;;;;;;5066010;28;20666;-86
2022/11/12 11:19:18;;;;;;;0.10;0.10;;;9.10;99.90;;;;;;5063444;28;20232;-85
2022/11/12 11:22:01;;;;;;;0.10;0.10;;;9.30;99.90;;;;;;5063383;28;20179;-86
2022/11/12 11:24:47;;;;;;;0.10;0.10;;;9.10;99.90;;;;;;5061532;28;20271;-86
2022/11/12 11:27:40;;;;;;;0.10;0.10;;;8.90;99.90;;;;;;5065893;28;20175;-86
2022/11/12 11:30:17;;;;;;;0.03;0.03;;;8.80;99.90;;;;;;5064059;28;20564;-86
2022/11/12 11:33:20;;;;;;;0.03;0.03;;;9.00;99.90;;;;;;5067808;28;20178;-85
2022/11/12 11:36:12;;;;;;;0.10;0.10;;;9.30;99.90;;;;;;5057882;28;20309;-85
2022/11/12 11:38:40;;;;;;;0.10;0.10;;;9.60;99.90;;;;;;5054274;28;20191;-86
2022/11/12 11:41:29;;;;;;;0.07;0.07;;;9.50;99.90;;;;;;5060518;28;20246;-85
2022/11/12 11:44:05;;;;;;;0.10;0.10;;;9.80;99.90;;;;;;5058785;28;20545;-85
2022/11/12 11:46:45;;;;;;;0.10;0.10;;;9.80;99.90;;;;;;5088358;28;20613;-87
2022/11/12 11:49:35;;;;;;;0.10;0.10;;;9.40;99.90;;;;;;5057329;28;20201;-85
2022/11/12 11:52:25;;;;;;;0.10;0.10;;;9.40;99.90;;;;;;5063112;28;20205;-86
2022/11/12 11:55:08;;;;;;;0.10;0.10;;;9.40;99.90;;;;;;5063747;28;20190;-86
2022/11/12 11:58:05;;;;;;;0.10;0.10;;;9.10;99.90;;;;;;5066388;28;20258;-87
2022/11/12 12:00:52;;;;;;;0.10;0.10;;;8.90;99.90;;;;;;5068285;28;20211;-86
2022/11/12 12:03:22;;;;;;;0.10;0.10;;;8.80;99.90;;;;;;5060316;28;20187;-85
2022/11/12 12:06:16;;;;;;;0.10;0.10;;;8.60;99.90;;;;;;5060489;28;20182;-85
2022/11/12 12:09:17;;;;;;;0.10;0.10;;;8.90;99.90;;;;;;5056293;28;20257;-85
2022/11/12 12:12:04;;;;;;;0.07;0.07;;;9.00;99.90;;;;;;5057444;28;20180;-85
2022/11/12 12:15:07;;;;;;;0.10;0.10;;;9.20;99.90;;;;;;5059795;28;20714;-85
2022/11/12 12:17:33;;;;;;;0.10;0.10;;;9.30;99.90;;;;;;5056696;28;20187;-86
2022/11/12 12:20:20;;;;;;;0.10;0.10;;;9.60;99.90;;;;;;5065987;28;20212;-85
2022/11/12 12:22:52;;;;;;;0.10;0.10;;;9.80;99.90;;;;;;5030274;28;20194;-86
2022/11/12 12:25:27;;;;;;;0.10;0.10;;;10.10;99.90;;;;;;5083224;28;20652;-85
2022/11/12 12:28:12;;;;;;;0.10;0.10;;;9.60;99.90;;;;;;5059559;28;20188;-85
2022/11/12 12:30:43;;;;;;;0.10;0.10;;;9.70;99.90;;;;;;5059635;28;20204;-85
2022/11/12 12:33:19;;;;;;;0.10;0.10;;;9.60;99.90;;;;;;5076090;28;20196;-85
2022/11/12 12:36:06;;;;;;;0.10;0.10;;;9.90;99.90;;;;;;5060815;28;20219;-87
2022/11/12 12:39:09;;;;;;;0.10;0.10;;;9.40;99.90;;;;;;5066381;28;20188;-85
2022/11/12 12:41:42;;;;;;;0.10;0.10;;;9.60;99.90;;;;;;5048009;28;20207;-86
2022/11/12 12:44:09;;;;;;;0.10;0.10;;;9.90;99.90;;;;;;5061713;28;20183;-86
2022/11/12 12:46:55;;;;;;;0.10;0.10;;;10.10;99.90;;;;;;5067102;28;20173;-86
2022/11/12 12:49:34;;;;;;;0.10;0.10;;;10.20;99.90;;;;;;5060320;28;20711;-86
2022/11/12 12:52:00;;;;;;;0.10;0.10;;;10.30;99.90;;;;;;5070266;28;20218;-85
2022/11/12 12:54:34;;;;;;;0.10;0.10;;;10.00;99.90;;;;;;5060164;28;20203;-85
2022/11/12 12:57:02;;;;;;;0.10;0.10;;;10.10;99.90;;;;;;5059959;28;20177;-86
2022/11/12 12:59:27;;;;;;;0.10;0.10;;;10.20;99.90;;;;;;5068114;28;20735;-85
2022/11/12 13:01:59;;;;;;;0.10;0.10;;;9.90;99.90;;;;;;5063274;28;20205;-86
2022/11/12 13:04:50;;;;;;;0.10;0.10;;;10.10;99.90;;;;;;5069294;28;20193;-85
2022/11/12 13:07:16;;;;;;;0.10;0.10;;;10.40;99.90;;;;;;5050405;28;20193;-87
2022/11/12 13:09:41;;;;;;;0.10;0.10;;;10.20;99.90;;;;;;5065025;28;20713;-86
2022/11/12 13:14:33;;;;;;;0.10;0.10;;;10.50;99.90;;;;;;5056452;28;20236;-86
2022/11/12 13:17:03;;;;;;;0.10;0.10;;;10.70;99.90;;;;;;5057962;28;20185;-85
2022/11/12 13:19:42;;;;;;;0.10;0.10;;;10.80;99.90;;;;;;5064893;28;20678;-86
2022/11/12 13:22:17;;;;;;;0.10;0.10;;;10.80;99.90;;;;;;5055139;28;20196;-85
2022/11/12 13:25:07;;;;;;;0.10;0.10;;;10.80;99.90;;;;;;5063189;28;20207;-86
2022/11/12 13:27:39;;;;;;;0.10;0.10;;;10.70;99.90;;;;;;5047189;28;20169;-87
2022/11/12 13:30:16;;;;;;;0.10;0.10;;;10.80;99.90;;;;;;5064388;28;20207;-86
2022/11/12 13:32:50;;;;;;;0.10;0.10;;;10.80;99.90;;;;;;5063232;28;20237;-85
2022/11/12 13:35:25;;;;;;;0.10;0.10;;;10.70;99.90;;;;;;5062037;28;20181;-86